sensor_id;sensor_type;location;lat;lon;timestamp;P1;durP1;ratioP1;P2;durP2;ratioP2
45338;SDS011;31071;51.478;5.710;2022-08-11T00:01:04;5.47;;;3.22;;
45338;SDS011;31071;51.478;5.710;2022-08-11T00:03:32;6.28;;;3.17;;
45338;SDS011;31071;51.478;5.710;2022-08-11T00:05:58;3.70;;;2.95;;
45338;SDS011;31071;51.478;5.710;2022-08-11T00:08:26;5.75;;;3.17;;
45338;SDS011;31071;51.478;5.710;2022-08-11T00:10:55;5.22;;;3.20;;
45338;SDS011;31071;51.478;5.710;2022-08-11T00:13:31;5.85;;;2.92;;
45338;SDS011;31071;51.478;5.710;2022-08-11T00:16:01;7.25;;;3.20;;
45338;SDS011;31071;51.478;5.710;2022-08-11T00:18:29;5.18;;;3.10;;
45338;SDS011;31071;51.478;5.710;2022-08-11T00:21:04;4.90;;;3.47;;
45338;SDS011;31071;51.478;5.710;2022-08-11T00:23:30;7.57;;;3.22;;
45338;SDS011;31071;51.478;5.710;2022-08-11T00:25:56;4.10;;;3.10;;
45338;SDS011;31071;51.478;5.710;2022-08-11T00:28:26;5.93;;;3.15;;
45338;SDS011;31071;51.478;5.710;2022-08-11T00:30:57;4.55;;;3.10;;
45338;SDS011;31071;51.478;5.710;2022-08-11T00:33:39;4.05;;;2.95;;
45338;SDS011;31071;51.478;5.710;2022-08-11T00:36:07;5.28;;;3.33;;
45338;SDS011;31071;51.478;5.710;2022-08-11T00:38:38;7.53;;;2.90;;
45338;SDS011;31071;51.478;5.710;2022-08-11T00:49:38;3.45;;;3.10;;
45338;SDS011;31071;51.478;5.710;2022-08-11T00:52:43;5.05;;;3.40;;
45338;SDS011;31071;51.478;5.710;2022-08-11T00:55:38;6.75;;;3.50;;
45338;SDS011;31071;51.478;5.710;2022-08-11T01:10:20;7.80;;;3.45;;
45338;SDS011;31071;51.478;5.710;2022-08-11T01:13:14;6.70;;;3.17;;
45338;SDS011;31071;51.478;5.710;2022-08-11T01:21:36;5.18;;;3.50;;
45338;SDS011;31071;51.478;5.710;2022-08-11T01:41:05;4.13;;;3.67;;
45338;SDS011;31071;51.478;5.710;2022-08-11T01:47:12;4.82;;;3.22;;
45338;SDS011;31071;51.478;5.710;2022-08-11T01:56:45;5.53;;;3.63;;
45338;SDS011;31071;51.478;5.710;2022-08-11T01:59:33;6.15;;;3.55;;
45338;SDS011;31071;51.478;5.710;2022-08-11T02:02:17;6.30;;;3.65;;
45338;SDS011;31071;51.478;5.710;2022-08-11T02:11:31;3.47;;;3.17;;
45338;SDS011;31071;51.478;5.710;2022-08-11T02:25:28;6.50;;;3.60;;
45338;SDS011;31071;51.478;5.710;2022-08-11T02:30:35;5.22;;;3.90;;
45338;SDS011;31071;51.478;5.710;2022-08-11T02:33:15;6.72;;;4.28;;
45338;SDS011;31071;51.478;5.710;2022-08-11T02:36:06;6.00;;;3.83;;
45338;SDS011;31071;51.478;5.710;2022-08-11T02:38:48;7.28;;;4.22;;
45338;SDS011;31071;51.478;5.710;2022-08-11T02:41:25;5.18;;;3.83;;
45338;SDS011;31071;51.478;5.710;2022-08-11T02:44:23;6.93;;;4.15;;
45338;SDS011;31071;51.478;5.710;2022-08-11T02:50:19;6.72;;;4.30;;
45338;SDS011;31071;51.478;5.710;2022-08-11T02:56:00;9.93;;;4.57;;
45338;SDS011;31071;51.478;5.710;2022-08-11T02:58:35;5.10;;;3.97;;
45338;SDS011;31071;51.478;5.710;2022-08-11T03:07:20;5.10;;;4.25;;
45338;SDS011;31071;51.478;5.710;2022-08-11T03:09:53;6.00;;;4.57;;
45338;SDS011;31071;51.478;5.710;2022-08-11T03:12:26;6.60;;;4.25;;
45338;SDS011;31071;51.478;5.710;2022-08-11T03:15:19;6.07;;;3.88;;
45338;SDS011;31071;51.478;5.710;2022-08-11T03:18:14;8.25;;;4.65;;
45338;SDS011;31071;51.478;5.710;2022-08-11T03:21:11;4.72;;;4.20;;
45338;SDS011;31071;51.478;5.710;2022-08-11T03:23:54;9.15;;;4.75;;
45338;SDS011;31071;51.478;5.710;2022-08-11T03:26:32;7.97;;;4.35;;
45338;SDS011;31071;51.478;5.710;2022-08-11T03:32:00;6.05;;;4.60;;
45338;SDS011;31071;51.478;5.710;2022-08-11T03:34:27;8.25;;;4.72;;
45338;SDS011;31071;51.478;5.710;2022-08-11T03:40:19;10.75;;;5.35;;
45338;SDS011;31071;51.478;5.710;2022-08-11T03:46:19;6.15;;;4.65;;
45338;SDS011;31071;51.478;5.710;2022-08-11T03:50:11;7.78;;;5.00;;
45338;SDS011;31071;51.478;5.710;2022-08-11T03:52:27;8.45;;;5.20;;
45338;SDS011;31071;51.478;5.710;2022-08-11T03:55:07;7.28;;;4.90;;
45338;SDS011;31071;51.478;5.710;2022-08-11T03:57:41;6.20;;;4.72;;
45338;SDS011;31071;51.478;5.710;2022-08-11T04:03:24;8.05;;;5.40;;
45338;SDS011;31071;51.478;5.710;2022-08-11T04:09:18;5.28;;;4.78;;
45338;SDS011;31071;51.478;5.710;2022-08-11T04:15:03;8.18;;;5.63;;
45338;SDS011;31071;51.478;5.710;2022-08-11T04:21:10;8.82;;;5.25;;
45338;SDS011;31071;51.478;5.710;2022-08-11T04:37:42;10.05;;;5.07;;
45338;SDS011;31071;51.478;5.710;2022-08-11T04:52:06;7.95;;;5.32;;
45338;SDS011;31071;51.478;5.710;2022-08-11T04:55:25;6.57;;;5.40;;
45338;SDS011;31071;51.478;5.710;2022-08-11T05:04:14;9.60;;;5.55;;
45338;SDS011;31071;51.478;5.710;2022-08-11T05:07:29;7.28;;;5.30;;
45338;SDS011;31071;51.478;5.710;2022-08-11T05:12:44;8.05;;;5.38;;
45338;SDS011;31071;51.478;5.710;2022-08-11T05:15:16;12.07;;;5.90;;
45338;SDS011;31071;51.478;5.710;2022-08-11T05:18:17;6.88;;;5.95;;
45338;SDS011;31071;51.478;5.710;2022-08-11T05:21:06;11.40;;;5.47;;
45338;SDS011;31071;51.478;5.710;2022-08-11T05:24:03;8.80;;;5.70;;
45338;SDS011;31071;51.478;5.710;2022-08-11T05:26:55;8.45;;;5.80;;
45338;SDS011;31071;51.478;5.710;2022-08-11T05:29:44;8.27;;;5.57;;
45338;SDS011;31071;51.478;5.710;2022-08-11T05:32:54;8.23;;;6.33;;
45338;SDS011;31071;51.478;5.710;2022-08-11T05:35:48;7.60;;;5.57;;
45338;SDS011;31071;51.478;5.710;2022-08-11T05:38:20;7.85;;;5.65;;
45338;SDS011;31071;51.478;5.710;2022-08-11T05:41:10;10.43;;;6.18;;
45338;SDS011;31071;51.478;5.710;2022-08-11T05:43:59;8.23;;;5.55;;
45338;SDS011;31071;51.478;5.710;2022-08-11T05:46:45;8.82;;;6.32;;
45338;SDS011;31071;51.478;5.710;2022-08-11T05:49:30;9.70;;;5.97;;
45338;SDS011;31071;51.478;5.710;2022-08-11T05:52:15;10.02;;;6.18;;
45338;SDS011;31071;51.478;5.710;2022-08-11T05:55:03;10.00;;;5.95;;
45338;SDS011;31071;51.478;5.710;2022-08-11T05:57:53;13.15;;;6.63;;
45338;SDS011;31071;51.478;5.710;2022-08-11T06:00:20;11.68;;;6.57;;
45338;SDS011;31071;51.478;5.710;2022-08-11T06:02:49;9.10;;;7.22;;
45338;SDS011;31071;51.478;5.710;2022-08-11T06:05:19;12.10;;;7.88;;
45338;SDS011;31071;51.478;5.710;2022-08-11T06:07:46;10.25;;;6.78;;
45338;SDS011;31071;51.478;5.710;2022-08-11T06:10:13;11.52;;;7.00;;
45338;SDS011;31071;51.478;5.710;2022-08-11T06:12:49;11.27;;;7.97;;
45338;SDS011;31071;51.478;5.710;2022-08-11T06:15:17;8.10;;;6.78;;
45338;SDS011;31071;51.478;5.710;2022-08-11T06:17:43;10.15;;;7.28;;
45338;SDS011;31071;51.478;5.710;2022-08-11T06:20:11;9.82;;;6.43;;
45338;SDS011;31071;51.478;5.710;2022-08-11T06:22:38;8.65;;;6.28;;
45338;SDS011;31071;51.478;5.710;2022-08-11T06:25:07;9.90;;;6.78;;
45338;SDS011;31071;51.478;5.710;2022-08-11T06:27:39;7.72;;;6.05;;
45338;SDS011;31071;51.478;5.710;2022-08-11T06:30:08;15.38;;;6.90;;
45338;SDS011;31071;51.478;5.710;2022-08-11T06:32:43;6.55;;;5.85;;
45338;SDS011;31071;51.478;5.710;2022-08-11T06:35:18;8.18;;;5.68;;
45338;SDS011;31071;51.478;5.710;2022-08-11T06:38:00;8.98;;;6.18;;
45338;SDS011;31071;51.478;5.710;2022-08-11T06:40:35;6.60;;;5.80;;
45338;SDS011;31071;51.478;5.710;2022-08-11T06:43:43;7.85;;;5.55;;
45338;SDS011;31071;51.478;5.710;2022-08-11T06:46:31;8.07;;;5.38;;
45338;SDS011;31071;51.478;5.710;2022-08-11T06:49:02;11.10;;;5.80;;
45338;SDS011;31071;51.478;5.710;2022-08-11T06:51:58;5.32;;;4.75;;
45338;SDS011;31071;51.478;5.710;2022-08-11T06:54:42;10.13;;;5.43;;
45338;SDS011;31071;51.478;5.710;2022-08-11T06:57:16;9.07;;;5.53;;
45338;SDS011;31071;51.478;5.710;2022-08-11T07:00:02;8.70;;;5.47;;
45338;SDS011;31071;51.478;5.710;2022-08-11T07:02:57;10.13;;;5.18;;
45338;SDS011;31071;51.478;5.710;2022-08-11T07:05:44;7.47;;;6.05;;
45338;SDS011;31071;51.478;5.710;2022-08-11T07:14:55;9.30;;;4.88;;
45338;SDS011;31071;51.478;5.710;2022-08-11T07:17:42;6.25;;;5.50;;
45338;SDS011;31071;51.478;5.710;2022-08-11T07:20:13;8.60;;;6.07;;
45338;SDS011;31071;51.478;5.710;2022-08-11T07:22:58;8.23;;;5.13;;
45338;SDS011;31071;51.478;5.710;2022-08-11T07:25:49;7.80;;;4.63;;
45338;SDS011;31071;51.478;5.710;2022-08-11T07:28:36;12.32;;;5.60;;
45338;SDS011;31071;51.478;5.710;2022-08-11T07:31:28;10.30;;;5.60;;
45338;SDS011;31071;51.478;5.710;2022-08-11T07:36:59;10.70;;;6.22;;
45338;SDS011;31071;51.478;5.710;2022-08-11T07:39:31;13.55;;;6.47;;
45338;SDS011;31071;51.478;5.710;2022-08-11T07:41:58;17.05;;;6.25;;
45338;SDS011;31071;51.478;5.710;2022-08-11T07:44:30;8.20;;;5.32;;
45338;SDS011;31071;51.478;5.710;2022-08-11T07:47:20;11.32;;;6.55;;
45338;SDS011;31071;51.478;5.710;2022-08-11T07:50:05;11.40;;;6.95;;
45338;SDS011;31071;51.478;5.710;2022-08-11T07:55:22;8.50;;;5.47;;
45338;SDS011;31071;51.478;5.710;2022-08-11T07:57:52;9.68;;;6.70;;
45338;SDS011;31071;51.478;5.710;2022-08-11T08:00:44;9.43;;;5.35;;
45338;SDS011;31071;51.478;5.710;2022-08-11T08:03:29;6.60;;;5.55;;
45338;SDS011;31071;51.478;5.710;2022-08-11T08:06:14;13.93;;;6.00;;
45338;SDS011;31071;51.478;5.710;2022-08-11T08:11:49;10.40;;;5.13;;
45338;SDS011;31071;51.478;5.710;2022-08-11T08:14:33;10.63;;;6.72;;
45338;SDS011;31071;51.478;5.710;2022-08-11T08:17:19;7.30;;;4.80;;
45338;SDS011;31071;51.478;5.710;2022-08-11T08:20:04;10.52;;;5.20;;
45338;SDS011;31071;51.478;5.710;2022-08-11T08:22:34;8.02;;;5.32;;
45338;SDS011;31071;51.478;5.710;2022-08-11T08:25:00;7.22;;;5.53;;
45338;SDS011;31071;51.478;5.710;2022-08-11T08:27:27;8.88;;;6.70;;
45338;SDS011;31071;51.478;5.710;2022-08-11T08:29:53;10.65;;;5.97;;
45338;SDS011;31071;51.478;5.710;2022-08-11T08:32:38;7.43;;;5.32;;
45338;SDS011;31071;51.478;5.710;2022-08-11T08:35:06;11.88;;;5.80;;
45338;SDS011;31071;51.478;5.710;2022-08-11T08:37:35;13.13;;;6.22;;
45338;SDS011;31071;51.478;5.710;2022-08-11T08:40:02;13.23;;;5.20;;
45338;SDS011;31071;51.478;5.710;2022-08-11T08:42:31;10.60;;;5.60;;
45338;SDS011;31071;51.478;5.710;2022-08-11T08:45:06;5.70;;;4.95;;
45338;SDS011;31071;51.478;5.710;2022-08-11T08:47:34;11.60;;;6.05;;
45338;SDS011;31071;51.478;5.710;2022-08-11T08:50:04;9.35;;;6.30;;
45338;SDS011;31071;51.478;5.710;2022-08-11T08:52:36;7.13;;;5.47;;
45338;SDS011;31071;51.478;5.710;2022-08-11T08:55:05;11.18;;;6.20;;
45338;SDS011;31071;51.478;5.710;2022-08-11T08:57:32;10.98;;;5.00;;
45338;SDS011;31071;51.478;5.710;2022-08-11T09:00:00;7.07;;;5.65;;
45338;SDS011;31071;51.478;5.710;2022-08-11T09:02:26;7.10;;;4.70;;
45338;SDS011;31071;51.478;5.710;2022-08-11T09:04:52;7.05;;;4.78;;
45338;SDS011;31071;51.478;5.710;2022-08-11T09:07:26;5.55;;;4.60;;
45338;SDS011;31071;51.478;5.710;2022-08-11T09:09:53;7.50;;;4.97;;
45338;SDS011;31071;51.478;5.710;2022-08-11T09:12:25;8.93;;;5.30;;
45338;SDS011;31071;51.478;5.710;2022-08-11T09:14:56;9.23;;;5.63;;
45338;SDS011;31071;51.478;5.710;2022-08-11T09:17:36;14.45;;;6.40;;
45338;SDS011;31071;51.478;5.710;2022-08-11T09:20:05;8.05;;;5.85;;
45338;SDS011;31071;51.478;5.710;2022-08-11T09:22:33;9.45;;;5.43;;
45338;SDS011;31071;51.478;5.710;2022-08-11T09:25:19;8.13;;;4.43;;
45338;SDS011;31071;51.478;5.710;2022-08-11T09:28:05;9.75;;;6.32;;
45338;SDS011;31071;51.478;5.710;2022-08-11T09:30:35;9.05;;;5.05;;
45338;SDS011;31071;51.478;5.710;2022-08-11T09:33:04;11.65;;;6.20;;
45338;SDS011;31071;51.478;5.710;2022-08-11T09:35:32;9.70;;;4.97;;
45338;SDS011;31071;51.478;5.710;2022-08-11T09:38:00;8.55;;;5.22;;
45338;SDS011;31071;51.478;5.710;2022-08-11T09:40:46;10.65;;;5.50;;
45338;SDS011;31071;51.478;5.710;2022-08-11T09:43:17;7.80;;;5.18;;
45338;SDS011;31071;51.478;5.710;2022-08-11T09:46:03;11.32;;;5.18;;
45338;SDS011;31071;51.478;5.710;2022-08-11T09:48:30;10.55;;;4.80;;
45338;SDS011;31071;51.478;5.710;2022-08-11T09:51:09;14.52;;;5.63;;
45338;SDS011;31071;51.478;5.710;2022-08-11T09:53:37;8.82;;;5.45;;
45338;SDS011;31071;51.478;5.710;2022-08-11T09:56:06;11.27;;;5.25;;
45338;SDS011;31071;51.478;5.710;2022-08-11T09:58:58;9.17;;;4.70;;
45338;SDS011;31071;51.478;5.710;2022-08-11T10:01:27;6.93;;;5.10;;
45338;SDS011;31071;51.478;5.710;2022-08-11T10:03:57;10.93;;;5.00;;
45338;SDS011;31071;51.478;5.710;2022-08-11T10:06:36;7.00;;;4.75;;
45338;SDS011;31071;51.478;5.710;2022-08-11T10:09:23;6.72;;;4.03;;
45338;SDS011;31071;51.478;5.710;2022-08-11T10:11:50;9.48;;;5.07;;
45338;SDS011;31071;51.478;5.710;2022-08-11T10:14:20;11.00;;;5.00;;
45338;SDS011;31071;51.478;5.710;2022-08-11T10:17:15;6.07;;;4.03;;
45338;SDS011;31071;51.478;5.710;2022-08-11T10:19:45;9.85;;;4.60;;
45338;SDS011;31071;51.478;5.710;2022-08-11T10:22:13;5.85;;;4.20;;
45338;SDS011;31071;51.478;5.710;2022-08-11T10:25:00;6.60;;;3.83;;
45338;SDS011;31071;51.478;5.710;2022-08-11T10:27:45;7.28;;;4.63;;
45338;SDS011;31071;51.478;5.710;2022-08-11T10:30:18;4.75;;;4.28;;
45338;SDS011;31071;51.478;5.710;2022-08-11T10:33:02;13.27;;;4.57;;
45338;SDS011;31071;51.478;5.710;2022-08-11T10:35:47;5.97;;;4.32;;
45338;SDS011;31071;51.478;5.710;2022-08-11T10:38:13;8.02;;;4.25;;
45338;SDS011;31071;51.478;5.710;2022-08-11T10:40:39;6.15;;;3.97;;
45338;SDS011;31071;51.478;5.710;2022-08-11T10:43:10;4.97;;;3.92;;
45338;SDS011;31071;51.478;5.710;2022-08-11T10:45:38;6.28;;;4.03;;
45338;SDS011;31071;51.478;5.710;2022-08-11T10:48:26;9.75;;;4.53;;
45338;SDS011;31071;51.478;5.710;2022-08-11T10:50:54;11.52;;;4.10;;
45338;SDS011;31071;51.478;5.710;2022-08-11T10:53:43;6.93;;;3.90;;
45338;SDS011;31071;51.478;5.710;2022-08-11T10:56:29;6.53;;;3.92;;
45338;SDS011;31071;51.478;5.710;2022-08-11T10:59:15;7.03;;;3.55;;
45338;SDS011;31071;51.478;5.710;2022-08-11T11:01:41;9.07;;;3.92;;
45338;SDS011;31071;51.478;5.710;2022-08-11T11:04:20;9.02;;;3.85;;
45338;SDS011;31071;51.478;5.710;2022-08-11T11:07:17;8.95;;;3.90;;
45338;SDS011;31071;51.478;5.710;2022-08-11T11:09:57;8.17;;;4.33;;
45338;SDS011;31071;51.478;5.710;2022-08-11T11:15:20;8.88;;;3.88;;
45338;SDS011;31071;51.478;5.710;2022-08-11T11:18:10;6.60;;;3.85;;
45338;SDS011;31071;51.478;5.710;2022-08-11T11:20:46;7.38;;;3.80;;
45338;SDS011;31071;51.478;5.710;2022-08-11T11:23:19;6.18;;;3.45;;
45338;SDS011;31071;51.478;5.710;2022-08-11T11:28:37;7.80;;;3.75;;
45338;SDS011;31071;51.478;5.710;2022-08-11T11:31:14;4.15;;;3.75;;
45338;SDS011;31071;51.478;5.710;2022-08-11T11:33:57;5.15;;;4.07;;
45338;SDS011;31071;51.478;5.710;2022-08-11T11:36:50;4.60;;;4.20;;
45338;SDS011;31071;51.478;5.710;2022-08-11T11:39:30;7.53;;;4.10;;
45338;SDS011;31071;51.478;5.710;2022-08-11T11:41:58;6.15;;;3.90;;
45338;SDS011;31071;51.478;5.710;2022-08-11T11:44:29;7.55;;;3.78;;
45338;SDS011;31071;51.478;5.710;2022-08-11T11:46:56;5.40;;;3.60;;
45338;SDS011;31071;51.478;5.710;2022-08-11T11:49:24;7.00;;;3.47;;
45338;SDS011;31071;51.478;5.710;2022-08-11T11:52:00;7.05;;;3.78;;
45338;SDS011;31071;51.478;5.710;2022-08-11T11:54:26;4.10;;;3.70;;
45338;SDS011;31071;51.478;5.710;2022-08-11T11:56:55;5.13;;;4.03;;
45338;SDS011;31071;51.478;5.710;2022-08-11T11:59:42;5.40;;;4.20;;
45338;SDS011;31071;51.478;5.710;2022-08-11T12:02:35;5.70;;;4.10;;
45338;SDS011;31071;51.478;5.710;2022-08-11T12:05:02;5.13;;;3.97;;
45338;SDS011;31071;51.478;5.710;2022-08-11T12:07:29;6.57;;;3.95;;
45338;SDS011;31071;51.478;5.710;2022-08-11T12:10:14;5.18;;;4.03;;
45338;SDS011;31071;51.478;5.710;2022-08-11T12:12:41;4.55;;;4.05;;
45338;SDS011;31071;51.478;5.710;2022-08-11T12:15:26;6.90;;;3.45;;
45338;SDS011;31071;51.478;5.710;2022-08-11T12:17:52;4.32;;;3.92;;
45338;SDS011;31071;51.478;5.710;2022-08-11T12:20:20;6.35;;;4.00;;
45338;SDS011;31071;51.478;5.710;2022-08-11T12:22:46;4.65;;;3.90;;
45338;SDS011;31071;51.478;5.710;2022-08-11T12:25:31;7.00;;;4.32;;
45338;SDS011;31071;51.478;5.710;2022-08-11T12:28:17;4.25;;;3.85;;
45338;SDS011;31071;51.478;5.710;2022-08-11T12:30:43;6.63;;;3.83;;
45338;SDS011;31071;51.478;5.710;2022-08-11T12:33:11;7.18;;;4.40;;
45338;SDS011;31071;51.478;5.710;2022-08-11T12:35:38;6.55;;;4.20;;
45338;SDS011;31071;51.478;5.710;2022-08-11T12:38:04;7.15;;;4.45;;
45338;SDS011;31071;51.478;5.710;2022-08-11T12:40:30;5.30;;;3.83;;
45338;SDS011;31071;51.478;5.710;2022-08-11T12:43:17;9.73;;;4.00;;
45338;SDS011;31071;51.478;5.710;2022-08-11T12:46:04;7.38;;;3.78;;
45338;SDS011;31071;51.478;5.710;2022-08-11T12:48:34;5.90;;;4.00;;
45338;SDS011;31071;51.478;5.710;2022-08-11T12:51:24;4.87;;;3.77;;
45338;SDS011;31071;51.478;5.710;2022-08-11T12:54:15;6.03;;;3.88;;
45338;SDS011;31071;51.478;5.710;2022-08-11T12:56:49;4.38;;;3.92;;
45338;SDS011;31071;51.478;5.710;2022-08-11T12:59:49;5.60;;;4.00;;
45338;SDS011;31071;51.478;5.710;2022-08-11T13:02:34;7.93;;;3.65;;
45338;SDS011;31071;51.478;5.710;2022-08-11T13:05:19;4.72;;;3.65;;
45338;SDS011;31071;51.478;5.710;2022-08-11T13:07:46;7.78;;;3.85;;
45338;SDS011;31071;51.478;5.710;2022-08-11T13:10:13;4.25;;;3.80;;
45338;SDS011;31071;51.478;5.710;2022-08-11T13:13:04;5.60;;;4.35;;
45338;SDS011;31071;51.478;5.710;2022-08-11T13:15:31;4.65;;;3.53;;
45338;SDS011;31071;51.478;5.710;2022-08-11T13:18:00;6.03;;;4.20;;
45338;SDS011;31071;51.478;5.710;2022-08-11T13:20:34;7.03;;;4.05;;
45338;SDS011;31071;51.478;5.710;2022-08-11T13:23:01;3.75;;;3.45;;
45338;SDS011;31071;51.478;5.710;2022-08-11T13:25:29;5.97;;;3.92;;
45338;SDS011;31071;51.478;5.710;2022-08-11T13:27:56;6.00;;;4.05;;
45338;SDS011;31071;51.478;5.710;2022-08-11T13:30:27;6.03;;;4.50;;
45338;SDS011;31071;51.478;5.710;2022-08-11T13:33:19;4.88;;;3.75;;
45338;SDS011;31071;51.478;5.710;2022-08-11T13:35:46;7.45;;;4.05;;
45338;SDS011;31071;51.478;5.710;2022-08-11T13:38:15;4.30;;;3.63;;
45338;SDS011;31071;51.478;5.710;2022-08-11T13:40:43;3.95;;;3.40;;
45338;SDS011;31071;51.478;5.710;2022-08-11T13:43:11;5.07;;;3.80;;
45338;SDS011;31071;51.478;5.710;2022-08-11T13:45:39;9.10;;;4.05;;
45338;SDS011;31071;51.478;5.710;2022-08-11T13:48:07;5.75;;;3.70;;
45338;SDS011;31071;51.478;5.710;2022-08-11T13:50:34;4.68;;;3.75;;
45338;SDS011;31071;51.478;5.710;2022-08-11T13:53:20;5.95;;;3.72;;
45338;SDS011;31071;51.478;5.710;2022-08-11T13:55:47;4.45;;;3.78;;
45338;SDS011;31071;51.478;5.710;2022-08-11T13:58:13;4.93;;;3.88;;
45338;SDS011;31071;51.478;5.710;2022-08-11T14:00:40;6.63;;;4.55;;
45338;SDS011;31071;51.478;5.710;2022-08-11T14:03:10;8.27;;;4.20;;
45338;SDS011;31071;51.478;5.710;2022-08-11T14:05:40;8.32;;;4.55;;
45338;SDS011;31071;51.478;5.710;2022-08-11T14:08:11;10.25;;;4.05;;
45338;SDS011;31071;51.478;5.710;2022-08-11T14:10:42;7.57;;;3.97;;
45338;SDS011;31071;51.478;5.710;2022-08-11T14:13:10;6.28;;;4.55;;
45338;SDS011;31071;51.478;5.710;2022-08-11T14:15:59;6.65;;;4.00;;
45338;SDS011;31071;51.478;5.710;2022-08-11T14:18:29;5.15;;;4.50;;
45338;SDS011;31071;51.478;5.710;2022-08-11T14:20:56;9.18;;;4.13;;
45338;SDS011;31071;51.478;5.710;2022-08-11T14:23:46;9.23;;;4.47;;
45338;SDS011;31071;51.478;5.710;2022-08-11T14:26:15;6.72;;;4.47;;
45338;SDS011;31071;51.478;5.710;2022-08-11T14:29:00;4.45;;;4.00;;
45338;SDS011;31071;51.478;5.710;2022-08-11T14:31:34;4.85;;;4.32;;
45338;SDS011;31071;51.478;5.710;2022-08-11T14:34:03;6.95;;;4.07;;
45338;SDS011;31071;51.478;5.710;2022-08-11T14:36:37;9.10;;;4.30;;
45338;SDS011;31071;51.478;5.710;2022-08-11T14:39:06;10.10;;;4.60;;
45338;SDS011;31071;51.478;5.710;2022-08-11T14:41:52;5.85;;;4.32;;
45338;SDS011;31071;51.478;5.710;2022-08-11T14:44:48;9.05;;;4.45;;
45338;SDS011;31071;51.478;5.710;2022-08-11T14:47:40;6.68;;;4.32;;
45338;SDS011;31071;51.478;5.710;2022-08-11T14:50:10;8.82;;;4.35;;
45338;SDS011;31071;51.478;5.710;2022-08-11T14:53:10;7.63;;;3.97;;
45338;SDS011;31071;51.478;5.710;2022-08-11T14:55:36;4.68;;;3.90;;
45338;SDS011;31071;51.478;5.710;2022-08-11T14:58:24;8.40;;;4.30;;
45338;SDS011;31071;51.478;5.710;2022-08-11T15:00:54;6.13;;;4.57;;
45338;SDS011;31071;51.478;5.710;2022-08-11T15:03:22;7.28;;;4.40;;
45338;SDS011;31071;51.478;5.710;2022-08-11T15:05:53;5.38;;;4.47;;
45338;SDS011;31071;51.478;5.710;2022-08-11T15:08:20;10.40;;;4.88;;
45338;SDS011;31071;51.478;5.710;2022-08-11T15:11:07;7.32;;;4.30;;
45338;SDS011;31071;51.478;5.710;2022-08-11T15:13:54;4.78;;;4.25;;
45338;SDS011;31071;51.478;5.710;2022-08-11T15:16:23;7.93;;;4.40;;
45338;SDS011;31071;51.478;5.710;2022-08-11T15:19:11;5.15;;;4.15;;
45338;SDS011;31071;51.478;5.710;2022-08-11T15:21:37;6.30;;;4.60;;
45338;SDS011;31071;51.478;5.710;2022-08-11T15:24:22;4.45;;;4.05;;
45338;SDS011;31071;51.478;5.710;2022-08-11T15:26:48;5.78;;;3.50;;
45338;SDS011;31071;51.478;5.710;2022-08-11T15:29:34;4.88;;;3.90;;
45338;SDS011;31071;51.478;5.710;2022-08-11T15:32:20;4.03;;;3.67;;
45338;SDS011;31071;51.478;5.710;2022-08-11T15:35:00;7.93;;;3.55;;
45338;SDS011;31071;51.478;5.710;2022-08-11T15:37:51;6.57;;;3.35;;
45338;SDS011;31071;51.478;5.710;2022-08-11T15:40:22;4.57;;;3.30;;
45338;SDS011;31071;51.478;5.710;2022-08-11T15:43:15;3.72;;;3.42;;
45338;SDS011;31071;51.478;5.710;2022-08-11T15:49:06;11.80;;;9.32;;
45338;SDS011;31071;51.478;5.710;2022-08-11T15:51:35;4.30;;;3.90;;
45338;SDS011;31071;51.478;5.710;2022-08-11T15:54:07;6.60;;;3.60;;
45338;SDS011;31071;51.478;5.710;2022-08-11T15:56:45;3.40;;;3.20;;
45338;SDS011;31071;51.478;5.710;2022-08-11T15:59:14;3.88;;;3.47;;
45338;SDS011;31071;51.478;5.710;2022-08-11T16:02:01;4.65;;;4.13;;
45338;SDS011;31071;51.478;5.710;2022-08-11T16:04:54;3.10;;;2.90;;
45338;SDS011;31071;51.478;5.710;2022-08-11T16:07:28;4.63;;;3.20;;
45338;SDS011;31071;51.478;5.710;2022-08-11T16:09:57;4.13;;;2.95;;
45338;SDS011;31071;51.478;5.710;2022-08-11T16:12:30;8.52;;;3.47;;
45338;SDS011;31071;51.478;5.710;2022-08-11T16:15:05;3.58;;;3.05;;
45338;SDS011;31071;51.478;5.710;2022-08-11T16:17:56;4.68;;;2.95;;
45338;SDS011;31071;51.478;5.710;2022-08-11T16:20:26;9.93;;;3.40;;
45338;SDS011;31071;51.478;5.710;2022-08-11T16:22:53;3.40;;;3.10;;
45338;SDS011;31071;51.478;5.710;2022-08-11T16:25:22;7.30;;;3.20;;
45338;SDS011;31071;51.478;5.710;2022-08-11T16:27:50;6.55;;;3.03;;
45338;SDS011;31071;51.478;5.710;2022-08-11T16:30:18;3.38;;;3.00;;
45338;SDS011;31071;51.478;5.710;2022-08-11T16:32:45;4.10;;;3.08;;
45338;SDS011;31071;51.478;5.710;2022-08-11T16:35:17;8.05;;;3.13;;
45338;SDS011;31071;51.478;5.710;2022-08-11T16:38:05;3.97;;;3.20;;
45338;SDS011;31071;51.478;5.710;2022-08-11T16:40:50;4.45;;;3.40;;
45338;SDS011;31071;51.478;5.710;2022-08-11T16:43:19;4.38;;;3.60;;
45338;SDS011;31071;51.478;5.710;2022-08-11T16:46:06;5.82;;;3.47;;
45338;SDS011;31071;51.478;5.710;2022-08-11T16:48:50;3.50;;;2.83;;
45338;SDS011;31071;51.478;5.710;2022-08-11T16:51:18;3.88;;;2.67;;
45338;SDS011;31071;51.478;5.710;2022-08-11T16:53:46;5.88;;;2.97;;
45338;SDS011;31071;51.478;5.710;2022-08-11T16:56:25;5.90;;;2.85;;
45338;SDS011;31071;51.478;5.710;2022-08-11T16:58:54;7.90;;;3.10;;
45338;SDS011;31071;51.478;5.710;2022-08-11T17:02:00;6.32;;;3.00;;
45338;SDS011;31071;51.478;5.710;2022-08-11T17:10:18;7.40;;;3.17;;
45338;SDS011;31071;51.478;5.710;2022-08-11T17:13:10;4.85;;;3.20;;
45338;SDS011;31071;51.478;5.710;2022-08-11T17:15:45;9.65;;;3.42;;
45338;SDS011;31071;51.478;5.710;2022-08-11T17:21:14;4.00;;;2.97;;
45338;SDS011;31071;51.478;5.710;2022-08-11T17:23:41;3.30;;;2.90;;
45338;SDS011;31071;51.478;5.710;2022-08-11T17:26:20;5.93;;;3.15;;
45338;SDS011;31071;51.478;5.710;2022-08-11T17:28:49;6.15;;;3.20;;
45338;SDS011;31071;51.478;5.710;2022-08-11T17:31:20;5.20;;;3.13;;
45338;SDS011;31071;51.478;5.710;2022-08-11T17:34:07;4.93;;;3.00;;
45338;SDS011;31071;51.478;5.710;2022-08-11T17:39:26;4.85;;;3.47;;
45338;SDS011;31071;51.478;5.710;2022-08-11T17:41:55;5.47;;;3.00;;
45338;SDS011;31071;51.478;5.710;2022-08-11T17:44:40;3.78;;;3.17;;
45338;SDS011;31071;51.478;5.710;2022-08-11T17:47:26;6.85;;;3.08;;
45338;SDS011;31071;51.478;5.710;2022-08-11T17:50:11;4.60;;;3.15;;
45338;SDS011;31071;51.478;5.710;2022-08-11T17:52:39;3.92;;;3.05;;
45338;SDS011;31071;51.478;5.710;2022-08-11T17:55:24;3.60;;;3.15;;
45338;SDS011;31071;51.478;5.710;2022-08-11T17:58:10;9.05;;;3.85;;
45338;SDS011;31071;51.478;5.710;2022-08-11T18:00:57;3.70;;;3.28;;
45338;SDS011;31071;51.478;5.710;2022-08-11T18:03:23;3.83;;;3.20;;
45338;SDS011;31071;51.478;5.710;2022-08-11T18:06:05;3.75;;;3.33;;
45338;SDS011;31071;51.478;5.710;2022-08-11T18:08:35;3.33;;;3.00;;
45338;SDS011;31071;51.478;5.710;2022-08-11T18:11:23;4.88;;;3.30;;
45338;SDS011;31071;51.478;5.710;2022-08-11T18:14:10;5.40;;;3.00;;
45338;SDS011;31071;51.478;5.710;2022-08-11T18:17:01;5.35;;;2.95;;
45338;SDS011;31071;51.478;5.710;2022-08-11T18:19:45;9.07;;;3.10;;
45338;SDS011;31071;51.478;5.710;2022-08-11T18:22:30;4.00;;;3.47;;
45338;SDS011;31071;51.478;5.710;2022-08-11T18:25:20;5.22;;;3.40;;
45338;SDS011;31071;51.478;5.710;2022-08-11T18:28:15;3.63;;;3.33;;
45338;SDS011;31071;51.478;5.710;2022-08-11T18:31:06;4.55;;;3.35;;
45338;SDS011;31071;51.478;5.710;2022-08-11T18:33:54;4.15;;;3.75;;
45338;SDS011;31071;51.478;5.710;2022-08-11T18:36:41;8.30;;;3.40;;
45338;SDS011;31071;51.478;5.710;2022-08-11T18:39:41;4.32;;;3.30;;
45338;SDS011;31071;51.478;5.710;2022-08-11T18:42:30;3.75;;;3.30;;
45338;SDS011;31071;51.478;5.710;2022-08-11T18:45:19;6.03;;;3.85;;
45338;SDS011;31071;51.478;5.710;2022-08-11T18:48:05;7.38;;;3.47;;